createdAt,value
2019-01-04T00:00:27.167Z,5.00
2019-01-04T00:02:55.748Z,5.37
2019-01-04T00:05:24.436Z,4.77
2019-01-04T00:07:53.448Z,5.07
2019-01-04T00:10:22.030Z,5.13
2019-01-04T00:12:50.685Z,5.20
2019-01-04T00:15:19.408Z,5.60
2019-01-04T00:17:48.178Z,5.80
2019-01-04T00:20:16.836Z,5.37
2019-01-04T00:22:45.488Z,6.20
2019-01-04T00:25:14.257Z,5.57
2019-01-04T00:27:42.877Z,4.73
2019-01-04T00:30:12.594Z,5.27
2019-01-04T00:32:41.172Z,5.00
2019-01-04T00:35:09.937Z,5.33
2019-01-04T00:37:38.620Z,5.37
2019-01-04T00:40:09.344Z,5.20
2019-01-04T00:42:38.107Z,5.43
2019-01-04T00:45:08.321Z,5.40
2019-01-04T00:47:37.091Z,5.57
2019-01-04T00:50:08.130Z,5.97
2019-01-04T00:52:36.845Z,5.97
2019-01-04T00:55:08.545Z,5.93
2019-01-04T00:57:49.097Z,5.60
2019-01-04T01:00:40.003Z,6.17
2019-01-04T01:03:28.245Z,6.37
2019-01-04T01:06:12.037Z,6.83
2019-01-04T01:09:10.858Z,7.37
2019-01-04T01:12:04.318Z,7.47
2019-01-04T01:15:09.523Z,7.13
2019-01-04T01:18:02.463Z,7.77
2019-01-04T01:20:42.968Z,8.40
2019-01-04T01:23:33.820Z,8.27
2019-01-04T01:26:20.498Z,8.37
2019-01-04T01:29:14.814Z,7.67
2019-01-04T01:31:58.308Z,8.67
2019-01-04T01:34:52.218Z,8.20
2019-01-04T01:37:42.180Z,7.70
2019-01-04T01:40:35.909Z,7.83
2019-01-04T01:43:18.945Z,7.07
2019-01-04T01:46:09.057Z,7.80
2019-01-04T01:48:40.761Z,8.17
2019-01-04T01:51:33.513Z,7.97
2019-01-04T01:54:02.201Z,8.20
2019-01-04T01:56:30.893Z,8.50
2019-01-04T01:58:59.517Z,9.33
2019-01-04T02:01:28.104Z,9.27
2019-01-04T02:03:56.801Z,8.87
2019-01-04T02:06:25.458Z,8.47
2019-01-04T02:08:54.037Z,8.10
2019-01-04T02:11:22.669Z,7.70
2019-01-04T02:13:51.319Z,6.90
2019-01-04T02:16:20.089Z,6.87
2019-01-04T02:18:48.816Z,6.57
2019-01-04T02:21:17.508Z,7.40
2019-01-04T02:23:46.085Z,7.53
2019-01-04T02:26:14.726Z,7.60
2019-01-04T02:28:43.387Z,7.43
2019-01-04T02:31:11.974Z,8.33
2019-01-04T02:33:40.600Z,8.00
2019-01-04T02:36:09.321Z,8.77
2019-01-04T02:38:37.937Z,7.77
2019-01-04T02:41:06.529Z,8.50
2019-01-04T02:43:35.219Z,8.17
2019-01-04T02:46:03.802Z,8.47
2019-01-04T02:48:32.423Z,9.03
2019-01-04T02:51:01.004Z,9.33
2019-01-04T02:53:29.648Z,9.30
2019-01-04T02:55:58.228Z,9.30
2019-01-04T02:58:26.920Z,9.97
2019-01-04T03:00:55.501Z,9.17
2019-01-04T03:03:24.133Z,10.20
2019-01-04T03:05:52.888Z,9.43
2019-01-04T03:08:21.479Z,10.03
2019-01-04T03:10:50.104Z,10.67
2019-01-04T03:13:18.688Z,9.77
2019-01-04T03:15:47.322Z,10.10
2019-01-04T03:18:15.954Z,12.83
2019-01-04T03:20:44.542Z,13.53
2019-01-04T03:23:13.235Z,14.23
2019-01-04T03:25:41.821Z,12.90
2019-01-04T03:28:10.530Z,13.63
2019-01-04T03:30:39.227Z,10.30
2019-01-04T03:33:07.857Z,9.37
2019-01-04T03:35:36.435Z,10.67
2019-01-04T03:38:05.063Z,10.60
2019-01-04T03:40:33.758Z,11.90
2019-01-04T03:43:02.451Z,12.97
2019-01-04T03:45:31.111Z,13.43
2019-01-04T03:47:59.801Z,13.83
2019-01-04T03:50:28.435Z,14.80
2019-01-04T03:52:57.303Z,15.30
2019-01-04T03:55:25.884Z,14.73
2019-01-04T03:57:54.467Z,15.80
2019-01-04T04:00:23.102Z,15.83
2019-01-04T04:02:51.785Z,14.77
2019-01-04T04:05:20.496Z,13.80
2019-01-04T04:07:49.150Z,15.90
2019-01-04T04:10:17.740Z,16.87
2019-01-04T04:12:46.374Z,15.80
2019-01-04T04:15:15.028Z,17.90
2019-01-04T04:17:43.616Z,16.43
2019-01-04T04:20:12.240Z,17.47
2019-01-04T04:22:40.862Z,17.00
2019-01-04T04:25:09.513Z,18.63
2019-01-04T04:27:38.147Z,19.63
2019-01-04T04:30:08.062Z,20.07
2019-01-04T04:32:36.682Z,20.37
2019-01-04T04:35:06.001Z,19.13
2019-01-04T04:37:34.625Z,17.97
2019-01-04T04:40:03.395Z,17.37
2019-01-04T04:42:32.030Z,16.87
2019-01-04T04:45:00.613Z,17.40
2019-01-04T04:47:29.218Z,17.47
2019-01-04T04:49:57.846Z,16.33
2019-01-04T04:52:26.438Z,16.07
2019-01-04T04:54:55.529Z,16.10
2019-01-04T04:57:24.145Z,15.63
2019-01-04T04:59:52.732Z,15.67
2019-01-04T05:02:21.429Z,15.67
2019-01-04T05:04:50.051Z,15.93
2019-01-04T05:07:18.675Z,15.63
2019-01-04T05:09:47.262Z,16.97
2019-01-04T05:12:15.946Z,15.73
2019-01-04T05:14:44.524Z,17.10
2019-01-04T05:17:13.141Z,16.50
2019-01-04T05:19:41.724Z,18.50
2019-01-04T05:22:10.388Z,19.63
2019-01-04T05:24:38.969Z,20.90
2019-01-04T05:27:07.561Z,20.47
2019-01-04T05:29:36.188Z,20.27
2019-01-04T05:32:04.837Z,21.10
2019-01-04T05:34:33.414Z,21.07
2019-01-04T05:37:02.039Z,20.73
2019-01-04T05:39:30.677Z,21.83
2019-01-04T05:41:59.372Z,19.23
2019-01-04T05:44:28.063Z,21.30
2019-01-04T05:46:56.640Z,20.97
2019-01-04T05:49:25.260Z,21.50
2019-01-04T05:51:53.962Z,21.07
2019-01-04T05:54:22.539Z,20.90
2019-01-04T05:56:51.232Z,21.53
2019-01-04T05:59:19.811Z,21.47
2019-01-04T06:01:48.510Z,20.23
2019-01-04T06:04:17.106Z,20.23
2019-01-04T06:06:45.727Z,19.20
2019-01-04T06:09:14.781Z,17.87
2019-01-04T06:11:43.408Z,17.60
2019-01-04T06:14:11.991Z,17.93
2019-01-04T06:16:40.608Z,17.93
2019-01-04T06:19:09.224Z,18.17
2019-01-04T06:21:37.801Z,17.47
2019-01-04T06:24:06.422Z,16.80
2019-01-04T06:26:38.389Z,18.27
2019-01-04T06:29:07.012Z,17.13
2019-01-04T06:31:35.598Z,18.07
2019-01-04T06:34:04.314Z,16.87
2019-01-04T06:36:32.939Z,17.30
2019-01-04T06:39:01.514Z,15.80
2019-01-04T06:41:30.204Z,16.37
2019-01-04T06:43:58.791Z,17.03
2019-01-04T06:46:27.414Z,16.10
2019-01-04T06:48:55.998Z,17.57
2019-01-04T06:51:27.795Z,18.07
2019-01-04T06:53:54.896Z,18.43
2019-01-04T06:56:23.472Z,18.77
2019-01-04T06:58:52.098Z,20.80
2019-01-04T07:01:20.683Z,19.83
2019-01-04T07:03:49.307Z,21.43
2019-01-04T07:06:17.896Z,22.47
2019-01-04T07:08:46.533Z,22.17
2019-01-04T07:11:15.181Z,21.33
2019-01-04T07:13:43.762Z,20.07
2019-01-04T07:16:12.466Z,20.10
2019-01-04T07:18:59.333Z,20.90
2019-01-04T07:21:28.212Z,20.43
2019-01-04T07:23:57.064Z,21.77
2019-01-04T07:26:25.993Z,22.30
2019-01-04T07:28:54.872Z,22.80
2019-01-04T07:31:23.477Z,24.30
2019-01-04T07:33:52.160Z,24.73
2019-01-04T07:36:20.780Z,25.80
2019-01-04T07:38:49.395Z,25.80
2019-01-04T07:41:17.981Z,25.80
2019-01-04T07:43:46.595Z,25.30
2019-01-04T07:46:15.217Z,25.47
2019-01-04T07:48:43.797Z,23.63
2019-01-04T07:51:12.409Z,22.67
2019-01-04T07:53:40.985Z,22.97
2019-01-04T07:56:09.556Z,23.93
2019-01-04T07:58:38.175Z,22.90
2019-01-04T08:01:06.828Z,20.80
2019-01-04T08:03:35.440Z,20.33
2019-01-04T08:06:04.196Z,20.03
2019-01-04T08:08:32.816Z,18.83
2019-01-04T08:11:01.497Z,20.80
2019-01-04T08:13:30.173Z,19.60
2019-01-04T08:15:58.866Z,19.53
2019-01-04T08:18:27.483Z,18.53
2019-01-04T08:20:56.106Z,17.83
2019-01-04T08:23:24.695Z,17.90
2019-01-04T08:25:53.367Z,16.53
2019-01-04T08:28:21.949Z,16.90
2019-01-04T08:30:50.591Z,16.53
2019-01-04T08:33:19.217Z,17.47
2019-01-04T08:35:47.863Z,17.20
2019-01-04T08:38:16.556Z,16.27
2019-01-04T08:40:45.136Z,17.00
2019-01-04T08:43:13.722Z,16.27
2019-01-04T08:45:42.349Z,15.87
2019-01-04T08:48:10.927Z,14.67
2019-01-04T08:50:39.503Z,14.30
2019-01-04T08:53:08.129Z,14.03
2019-01-04T08:55:36.707Z,14.10
2019-01-04T08:58:05.408Z,13.73
2019-01-04T09:00:34.093Z,13.60
2019-01-04T09:03:02.707Z,13.83
2019-01-04T09:05:31.284Z,13.40
2019-01-04T09:07:59.906Z,12.03
2019-01-04T09:10:28.619Z,12.63
2019-01-04T09:12:57.241Z,12.47
2019-01-04T09:15:25.888Z,11.40
2019-01-04T09:17:54.509Z,11.90
2019-01-04T09:20:23.160Z,11.07
2019-01-04T09:22:51.900Z,11.70
2019-01-04T09:25:20.481Z,11.10
2019-01-04T09:27:49.180Z,10.30
2019-01-04T09:30:17.899Z,9.63
2019-01-04T09:32:46.477Z,10.10
2019-01-04T09:35:15.100Z,10.47
2019-01-04T09:37:43.671Z,10.27
2019-01-04T09:40:12.420Z,9.47
2019-01-04T09:42:41.176Z,9.77
2019-01-04T09:45:09.986Z,9.03
2019-01-04T09:47:38.602Z,10.07
2019-01-04T09:50:08.745Z,8.97
2019-01-04T09:52:37.435Z,8.97
2019-01-04T09:55:06.641Z,8.30
2019-01-04T09:57:35.252Z,9.03
2019-01-04T10:00:05.181Z,7.30
2019-01-04T10:02:33.745Z,7.43
2019-01-04T10:05:02.365Z,7.23
2019-01-04T10:07:31.055Z,7.37
2019-01-04T10:09:59.628Z,7.17
2019-01-04T10:12:28.264Z,6.63
2019-01-04T10:14:56.883Z,5.93
2019-01-04T10:17:25.521Z,5.67
2019-01-04T10:19:54.197Z,5.90
2019-01-04T10:22:22.804Z,5.57
2019-01-04T10:24:51.481Z,6.27
2019-01-04T10:27:20.134Z,5.73
2019-01-04T10:29:48.744Z,6.13
2019-01-04T10:32:17.384Z,5.30
2019-01-04T10:34:45.993Z,5.03
2019-01-04T10:37:14.614Z,5.30
2019-01-04T10:39:43.296Z,4.80
2019-01-04T10:42:11.903Z,5.10
2019-01-04T10:44:40.512Z,5.27
2019-01-04T10:47:09.152Z,5.00
2019-01-04T10:49:37.764Z,4.33
2019-01-04T10:52:06.379Z,5.10
2019-01-04T10:54:34.995Z,5.83
2019-01-04T10:57:03.638Z,4.93
2019-01-04T10:59:32.317Z,4.93
2019-01-04T11:02:00.929Z,5.00
2019-01-04T11:04:29.545Z,5.07
2019-01-04T11:06:58.152Z,5.17
2019-01-04T11:09:26.760Z,5.03
2019-01-04T11:11:55.327Z,5.23
2019-01-04T11:14:23.951Z,4.13
2019-01-04T11:16:52.556Z,4.37
2019-01-04T11:19:21.260Z,4.63
2019-01-04T11:21:49.876Z,4.73
2019-01-04T11:24:27.584Z,4.20
2019-01-04T11:26:56.192Z,4.33
2019-01-04T11:29:55.388Z,4.47
2019-01-04T11:32:35.812Z,4.40
2019-01-04T11:35:25.549Z,4.53
2019-01-04T11:38:15.253Z,5.83
2019-01-04T11:40:49.937Z,5.90
2019-01-04T11:43:33.151Z,5.50
2019-01-04T11:46:22.980Z,5.73
2019-01-04T11:49:03.751Z,6.10
2019-01-04T11:51:52.876Z,6.10
2019-01-04T11:54:21.456Z,6.53
2019-01-04T11:56:50.073Z,6.40
2019-01-04T11:59:18.770Z,6.57
2019-01-04T12:01:47.336Z,7.30
2019-01-04T12:04:15.953Z,7.60
2019-01-04T12:06:44.565Z,7.57
2019-01-04T12:09:13.132Z,7.33
2019-01-04T12:11:41.745Z,7.80
2019-01-04T12:14:10.372Z,7.93
2019-01-04T12:16:39.049Z,8.50
2019-01-04T12:19:07.623Z,7.80
2019-01-04T12:21:36.384Z,8.77
2019-01-04T12:24:05.097Z,8.10
2019-01-04T12:26:33.669Z,8.00
2019-01-04T12:29:02.397Z,8.40
2019-01-04T12:31:30.976Z,8.70
2019-01-04T12:33:59.656Z,8.00
2019-01-04T12:36:28.225Z,8.67
2019-01-04T12:38:56.832Z,9.20
2019-01-04T12:41:25.482Z,9.20
2019-01-04T12:43:54.161Z,9.70
2019-01-04T12:46:22.846Z,9.73
2019-01-04T12:48:51.876Z,9.90
2019-01-04T12:51:20.456Z,10.10
2019-01-04T12:53:49.029Z,9.33
2019-01-04T12:56:17.736Z,10.37
2019-01-04T12:58:47.496Z,10.87
2019-01-04T13:01:16.371Z,9.57
2019-01-04T13:03:44.981Z,10.33
2019-01-04T13:06:13.640Z,10.20
2019-01-04T13:08:42.270Z,9.50
2019-01-04T13:11:11.036Z,9.67
2019-01-04T13:13:39.600Z,9.50
2019-01-04T13:16:08.296Z,9.17
2019-01-04T13:18:36.870Z,9.00
2019-01-04T13:21:05.634Z,9.20
2019-01-04T13:23:34.214Z,10.47
2019-01-04T13:26:02.791Z,11.27
2019-01-04T13:28:31.465Z,10.40
2019-01-04T13:31:00.052Z,10.70
2019-01-04T13:33:28.748Z,10.93
2019-01-04T13:35:57.454Z,11.20
2019-01-04T13:38:26.024Z,11.80
2019-01-04T13:40:54.678Z,10.30
2019-01-04T13:43:23.296Z,11.47
2019-01-04T13:45:51.874Z,11.77
2019-01-04T13:48:20.511Z,11.53
2019-01-04T13:50:49.160Z,11.60
2019-01-04T13:53:17.740Z,11.80
2019-01-04T13:55:46.367Z,11.43
2019-01-04T13:58:14.950Z,11.67
2019-01-04T14:00:43.537Z,11.50
2019-01-04T14:03:12.157Z,11.70
2019-01-04T14:05:40.780Z,12.07
2019-01-04T14:08:09.366Z,11.67
2019-01-04T14:10:37.976Z,12.40
2019-01-04T14:13:09.358Z,12.43
2019-01-04T14:15:36.833Z,12.27
2019-01-04T14:18:05.517Z,13.57
2019-01-04T14:20:34.099Z,13.07
2019-01-04T14:23:02.719Z,13.37
2019-01-04T14:25:31.296Z,13.77
2019-01-04T14:27:59.986Z,13.97
2019-01-04T14:30:28.608Z,14.33
2019-01-04T14:32:57.189Z,14.63
2019-01-04T14:35:25.940Z,15.70
2019-01-04T14:37:54.517Z,14.70
2019-01-04T14:40:23.139Z,15.93
2019-01-04T14:42:51.824Z,14.83
2019-01-04T14:45:20.452Z,15.37
2019-01-04T14:47:49.099Z,16.87
2019-01-04T14:50:17.673Z,15.10
2019-01-04T14:52:46.295Z,16.37
2019-01-04T14:55:14.981Z,15.93
2019-01-04T14:57:43.668Z,16.30
2019-01-04T15:00:12.684Z,17.10
2019-01-04T15:02:41.381Z,16.67
2019-01-04T15:05:10.088Z,17.27
2019-01-04T15:07:38.708Z,16.83
2019-01-04T15:10:08.832Z,16.83
2019-01-04T15:12:37.520Z,17.63
2019-01-04T15:15:07.172Z,17.37
2019-01-04T15:17:35.754Z,15.90
2019-01-04T15:20:06.514Z,18.17
2019-01-04T15:22:35.133Z,18.07
2019-01-04T15:25:04.312Z,17.23
2019-01-04T15:27:32.889Z,18.10
2019-01-04T15:30:01.519Z,18.23
2019-01-04T15:32:30.156Z,18.70
2019-01-04T15:34:58.854Z,16.83
2019-01-04T15:37:27.473Z,17.67
2019-01-04T15:39:56.121Z,17.33
2019-01-04T15:42:24.737Z,17.50
2019-01-04T15:44:53.368Z,16.97
2019-01-04T15:47:21.992Z,15.90
2019-01-04T15:49:50.574Z,17.40
2019-01-04T15:52:19.192Z,16.63
2019-01-04T15:54:47.840Z,17.40
2019-01-04T15:57:16.533Z,17.27
2019-01-04T15:59:45.181Z,16.90
2019-01-04T16:02:13.804Z,17.40
2019-01-04T16:04:42.591Z,16.50
2019-01-04T16:07:11.242Z,17.20
2019-01-04T16:09:39.853Z,16.53
2019-01-04T16:15:13.278Z,15.57
2019-01-04T16:17:42.117Z,15.10
2019-01-04T16:20:11.865Z,14.87
2019-01-04T16:22:40.784Z,15.17
2019-01-04T16:25:09.480Z,14.07
2019-01-04T16:27:38.124Z,15.33
2019-01-04T16:30:09.756Z,15.43
2019-01-04T16:32:38.341Z,16.07
2019-01-04T16:35:07.104Z,15.10
2019-01-04T16:37:35.804Z,16.13
2019-01-04T16:40:06.733Z,16.90
2019-01-04T16:42:35.409Z,15.93
2019-01-04T16:45:05.472Z,16.97
2019-01-04T16:47:34.166Z,17.07
2019-01-04T16:50:03.492Z,16.53
2019-01-04T16:52:32.241Z,16.77
2019-01-04T16:55:01.147Z,16.87
2019-01-04T16:57:29.874Z,16.67
2019-01-04T16:59:58.498Z,17.27
2019-01-04T17:02:27.125Z,16.83
2019-01-04T17:04:55.712Z,17.47
2019-01-04T17:07:24.334Z,17.33
2019-01-04T17:09:52.946Z,16.87
2019-01-04T17:12:21.702Z,16.13
2019-01-04T17:14:50.275Z,16.80
2019-01-04T17:17:18.916Z,16.77
2019-01-04T17:19:47.565Z,15.53
2019-01-04T17:22:16.344Z,15.60
2019-01-04T17:24:44.925Z,15.67
2019-01-04T17:27:13.708Z,16.23
2019-01-04T17:29:42.635Z,16.43
2019-01-04T17:32:11.192Z,16.33
2019-01-04T17:34:39.804Z,16.80
2019-01-04T17:37:08.559Z,16.23
2019-01-04T17:39:37.140Z,15.57
2019-01-04T17:42:05.731Z,16.40
2019-01-04T17:44:34.413Z,17.60
2019-01-04T17:47:02.990Z,17.10
2019-01-04T17:49:31.643Z,17.97
2019-01-04T17:52:00.271Z,17.37
2019-01-04T17:54:28.902Z,17.37
2019-01-04T17:56:57.549Z,18.53
2019-01-04T17:59:26.131Z,17.40
2019-01-04T18:01:54.754Z,19.00
2019-01-04T18:04:23.445Z,18.40
2019-01-04T18:06:52.186Z,18.30
2019-01-04T18:09:20.810Z,18.07
2019-01-04T18:11:49.393Z,18.80
2019-01-04T18:14:18.009Z,19.37
2019-01-04T18:16:46.597Z,18.90
2019-01-04T18:19:15.289Z,17.93
2019-01-04T18:21:43.945Z,19.10
2019-01-04T18:24:12.526Z,18.87
2019-01-04T18:26:41.144Z,18.27
2019-01-04T18:29:09.775Z,18.67
2019-01-04T18:31:38.393Z,18.37
2019-01-04T18:34:07.102Z,17.93
2019-01-04T18:36:35.805Z,17.93
2019-01-04T18:39:05.830Z,16.87
2019-01-04T18:41:34.407Z,16.80
2019-01-04T18:44:03.102Z,17.83
2019-01-04T18:46:31.783Z,16.83
2019-01-04T18:49:00.472Z,18.07
2019-01-04T18:51:29.116Z,17.40
2019-01-04T18:53:57.769Z,17.40
2019-01-04T18:56:26.505Z,17.33
2019-01-04T18:58:55.189Z,18.07
2019-01-04T19:01:23.909Z,18.83
2019-01-04T19:03:52.606Z,20.03
2019-01-04T19:06:21.188Z,20.10
2019-01-04T19:08:49.813Z,19.53
2019-01-04T19:11:18.400Z,20.13
2019-01-04T19:13:47.090Z,19.57
2019-01-04T19:16:15.678Z,19.80
2019-01-04T19:18:44.297Z,21.63
2019-01-04T19:21:12.956Z,22.07
2019-01-04T19:23:41.618Z,22.70
2019-01-04T19:26:10.238Z,21.80
2019-01-04T19:28:38.818Z,22.83
2019-01-04T19:31:07.452Z,21.87
2019-01-04T19:33:36.096Z,23.07
2019-01-04T19:36:04.792Z,23.87
2019-01-04T19:38:33.373Z,24.03
2019-01-04T19:41:02.058Z,23.67
2019-01-04T19:43:30.680Z,23.53
2019-01-04T19:45:59.291Z,21.93
2019-01-04T19:48:27.881Z,23.00
2019-01-04T19:50:56.501Z,23.47
2019-01-04T19:53:25.082Z,23.10
2019-01-04T19:55:53.700Z,21.27
2019-01-04T19:58:22.281Z,23.70
2019-01-04T20:00:50.918Z,22.77
2019-01-04T20:03:19.506Z,22.13
2019-01-04T20:05:52.913Z,22.77
2019-01-04T20:08:35.158Z,22.43
2019-01-04T20:11:23.501Z,23.20
2019-01-04T20:14:32.981Z,23.33
2019-01-04T20:17:15.382Z,23.50
2019-01-04T20:19:49.643Z,24.53
2019-01-04T20:22:36.526Z,24.70
2019-01-04T20:25:13.168Z,25.40
2019-01-04T20:27:46.423Z,23.93
2019-01-04T20:30:22.735Z,23.53
2019-01-04T20:32:55.418Z,22.83
2019-01-04T20:35:41.953Z,21.67
2019-01-04T20:38:28.456Z,23.27
2019-01-04T20:41:10.721Z,21.27
2019-01-04T20:43:43.979Z,21.87
2019-01-04T20:46:30.541Z,21.40
2019-01-04T20:49:06.485Z,22.00
2019-01-04T20:51:39.742Z,22.80
2019-01-04T20:54:26.448Z,21.43
2019-01-04T20:56:59.539Z,21.67
2019-01-04T20:59:32.592Z,20.23
2019-01-04T21:02:05.577Z,21.27
2019-01-04T21:04:51.436Z,20.27
2019-01-04T21:07:27.795Z,20.73
2019-01-04T21:10:01.225Z,20.07
2019-01-04T21:12:47.820Z,21.70
2019-01-04T21:15:26.905Z,22.00
2019-01-04T21:18:09.049Z,22.43
2019-01-04T21:20:48.471Z,22.90
2019-01-04T21:23:18.705Z,21.93
2019-01-04T21:26:05.154Z,23.03
2019-01-04T21:28:50.608Z,22.97
2019-01-04T21:31:32.734Z,23.70
2019-01-04T21:34:05.990Z,23.90
2019-01-04T21:42:29.984Z,23.17
2019-01-04T21:45:04.705Z,24.87
2019-01-04T21:47:51.592Z,24.27
2019-01-04T21:50:34.318Z,23.73
2019-01-04T21:53:20.848Z,25.77
2019-01-04T21:56:03.148Z,24.17
2019-01-04T21:58:51.749Z,24.87
2019-01-04T22:01:38.294Z,23.10
2019-01-04T22:04:08.636Z,23.53
2019-01-04T22:06:38.939Z,24.23
2019-01-04T22:09:21.280Z,22.70
2019-01-04T22:12:00.828Z,22.37
2019-01-04T22:14:34.030Z,21.80
2019-01-04T22:17:13.016Z,22.90
2019-01-04T22:19:59.792Z,22.57
2019-01-04T22:22:30.330Z,23.63
2019-01-04T22:25:03.418Z,21.53
2019-01-04T22:27:36.413Z,22.53
2019-01-04T22:30:24.837Z,23.07
2019-01-04T22:33:11.364Z,22.10
2019-01-04T22:35:41.573Z,23.67
2019-01-04T22:38:21.161Z,22.40
2019-01-04T22:41:09.615Z,22.57
2019-01-04T22:43:42.609Z,22.50
2019-01-04T22:46:22.035Z,22.93
2019-01-04T22:48:52.380Z,23.03
2019-01-04T22:51:31.389Z,25.27
2019-01-04T22:54:01.743Z,24.60
2019-01-04T22:56:32.035Z,26.63
2019-01-04T22:59:20.413Z,28.27
2019-01-04T23:01:56.524Z,29.67
2019-01-04T23:04:29.388Z,28.87
2019-01-04T23:07:02.258Z,28.90
2019-01-04T23:09:32.533Z,30.13
2019-01-04T23:12:14.792Z,29.00
2019-01-04T23:14:54.047Z,27.90
2019-01-04T23:17:39.715Z,28.60
2019-01-04T23:20:16.209Z,24.47
2019-01-04T23:22:52.368Z,24.33
2019-01-04T23:25:28.821Z,22.33
2019-01-04T23:28:17.665Z,21.67
2019-01-04T23:31:03.092Z,19.10
2019-01-04T23:33:42.197Z,19.20
2019-01-04T23:36:24.786Z,17.93
2019-01-04T23:39:01.417Z,17.77
2019-01-04T23:41:31.901Z,18.63
2019-01-04T23:44:02.168Z,16.37
2019-01-04T23:46:32.557Z,16.00
2019-01-04T23:49:08.821Z,16.87
2019-01-04T23:51:48.072Z,15.83
2019-01-04T23:54:21.452Z,14.70
2019-01-04T23:57:08.804Z,14.60
2019-01-04T23:59:55.657Z,13.87
